Time;durP1;ratioP1;P1;durP2;ratioP2;P2;SDS_P1;SDS_P2;PMS_P1;PMS_P2;Temp;Humidity;BMP_temperature;BMP_pressure;BME280_temperature;BME280_humidity;BME280_pressure;Samples;Min_cycle;Max_cycle;Signal;HPM_P1;HPM_P2
2023/12/30 00:01:51;;;;;;;;;;;8.30;99.90;;;;;;5043702;28;19917;-79
2023/12/30 00:04:37;;;;;;;;;;;8.30;99.90;;;;;;5051338;28;19928;-81
2023/12/30 00:07:23;;;;;;;;;;;8.30;99.90;;;;;;5058135;28;19917;-80
2023/12/30 00:10:09;;;;;;;;;;;8.30;99.90;;;;;;5045876;28;19909;-81
2023/12/30 00:12:55;;;;;;;;;;;8.20;99.90;;;;;;5040599;28;19916;-80
2023/12/30 00:15:41;;;;;;;;;;;8.30;99.90;;;;;;5042741;28;19917;-80
2023/12/30 00:18:27;;;;;;;;;;;8.50;99.90;;;;;;5054119;28;19928;-80
2023/12/30 00:21:20;;;;;;;;;;;8.40;99.90;;;;;;5048043;28;20596;-79
2023/12/30 00:24:09;;;;;;;;;;;8.40;99.90;;;;;;5041449;28;20210;-79
2023/12/30 00:26:55;;;;;;;;;;;8.20;99.90;;;;;;5061267;28;20647;-80
2023/12/30 00:29:43;;;;;;;;;;;8.20;99.90;;;;;;5045790;28;20674;-80
2023/12/30 00:32:29;;;;;;;;;;;8.30;99.90;;;;;;5050345;28;19931;-80
2023/12/30 00:35:15;;;;;;;;;;;8.30;99.90;;;;;;5039369;28;19912;-80
2023/12/30 00:38:10;;;;;;;;;;;8.40;99.90;;;;;;5066040;28;19947;-82
2023/12/30 00:40:56;;;;;;;;;;;8.30;99.90;;;;;;5053368;28;20277;-80
2023/12/30 00:43:43;;;;;;;;;;;8.30;99.90;;;;;;5053232;28;20090;-79
2023/12/30 00:46:29;;;;;;;;;;;8.20;99.90;;;;;;5056491;28;19901;-80
2023/12/30 00:51:56;;;;;;;;;;;8.10;99.90;;;;;;5423821;22;19916;-81
2023/12/30 00:54:42;;;;;;;;;;;8.00;99.90;;;;;;5013710;28;19929;-80
2023/12/30 00:57:28;;;;;;;;;;;7.90;99.90;;;;;;5003497;28;19923;-79
2023/12/30 01:00:14;;;;;;;;;;;7.90;99.90;;;;;;5052832;28;19905;-80
2023/12/30 01:03:00;;;;;;;;;;;8.00;99.90;;;;;;5128075;23;19933;-79
2023/12/30 01:05:46;;;;;;;;;;;8.20;99.90;;;;;;5027389;28;19920;-80
2023/12/30 01:08:32;;;;;;;;;;;8.00;99.90;;;;;;5039025;28;20725;-80
2023/12/30 01:11:18;;;;;;;;;;;7.90;99.90;;;;;;5019922;28;19913;-80
2023/12/30 01:14:04;;;;;;;;;;;7.90;99.90;;;;;;5049317;28;19908;-80
2023/12/30 01:16:51;;;;;;;;;;;8.10;99.90;;;;;;5027200;28;19917;-78
2023/12/30 01:19:37;;;;;;;;;;;8.30;99.90;;;;;;5029890;28;20337;-79
2023/12/30 01:22:23;;;;;;;;;;;8.20;99.90;;;;;;5012982;28;19920;-79
2023/12/30 01:25:09;;;;;;;;;;;8.00;99.90;;;;;;5032281;28;20019;-77
2023/12/30 01:27:55;;;;;;;;;;;7.90;99.90;;;;;;5022859;28;19913;-80
2023/12/30 01:30:41;;;;;;;;;;;7.90;99.90;;;;;;5040211;28;19946;-79
2023/12/30 01:33:28;;;;;;;;;;;7.80;99.90;;;;;;5018560;28;19924;-78
2023/12/30 01:36:14;;;;;;;;;;;7.70;99.90;;;;;;5034642;28;20531;-76
2023/12/30 01:39:00;;;;;;;;;;;7.70;99.90;;;;;;5034500;28;19963;-76
2023/12/30 01:41:46;;;;;;;;;;;7.70;99.90;;;;;;5013982;28;20591;-75
2023/12/30 01:44:32;;;;;;;;;;;7.70;99.90;;;;;;5034390;28;20541;-76
2023/12/30 01:47:18;;;;;;;;;;;7.70;99.90;;;;;;5033521;28;19926;-76
2023/12/30 01:50:04;;;;;;;;;;;7.60;99.90;;;;;;5010312;28;19928;-76
2023/12/30 01:52:50;;;;;;;;;;;7.60;99.90;;;;;;5016886;28;19924;-77
2023/12/30 01:55:36;;;;;;;;;;;7.50;99.90;;;;;;5034244;28;19917;-76
2023/12/30 01:58:21;;;;;;;;;;;7.50;99.90;;;;;;5014465;28;19921;-76
2023/12/30 02:01:07;;;;;;;;;;;7.40;99.90;;;;;;5034804;28;19916;-77
2023/12/30 02:03:53;;;;;;;;;;;7.40;99.90;;;;;;5036240;28;19921;-79
2023/12/30 02:06:39;;;;;;;;;;;7.60;99.90;;;;;;5031295;28;19913;-77
2023/12/30 02:09:25;;;;;;;;;;;7.60;99.90;;;;;;5023747;28;19913;-79
2023/12/30 02:12:11;;;;;;;;;;;7.50;99.90;;;;;;5020623;28;19971;-76
2023/12/30 02:15:10;;;;;;;;;;;7.30;99.90;;;;;;5033323;28;19913;-76
2023/12/30 02:17:56;;;;;;;;;;;7.30;99.90;;;;;;5021909;28;19918;-76
2023/12/30 02:20:42;;;;;;;;;;;7.10;99.90;;;;;;5017674;28;20008;-75
2023/12/30 02:23:28;;;;;;;;;;;7.10;99.90;;;;;;5006500;28;20008;-76
2023/12/30 02:26:14;;;;;;;;;;;7.20;99.90;;;;;;5022936;28;19917;-76
2023/12/30 02:29:00;;;;;;;;;;;7.10;99.90;;;;;;5018161;28;20250;-76
2023/12/30 02:31:46;;;;;;;;;;;7.10;99.90;;;;;;5029413;28;20306;-76
2023/12/30 02:34:32;;;;;;;;;;;7.10;99.90;;;;;;5015286;28;20330;-76
2023/12/30 02:37:18;;;;;;;;;;;7.00;99.90;;;;;;5033792;28;19995;-76
2023/12/30 02:40:04;;;;;;;;;;;7.00;99.90;;;;;;5031089;28;19917;-76
2023/12/30 02:42:53;;;;;;;;;;;6.90;99.90;;;;;;5031461;28;19916;-76
2023/12/30 02:45:39;;;;;;;;;;;6.90;99.90;;;;;;5008828;28;20241;-75
2023/12/30 02:48:25;;;;;;;;;;;7.30;99.90;;;;;;5033687;28;19917;-75
2023/12/30 02:51:15;;;;;;;;;;;7.10;99.90;;;;;;5034965;28;19917;-75
2023/12/30 02:54:00;;;;;;;;;;;7.10;99.90;;;;;;5006341;28;20005;-75
2023/12/30 02:56:46;;;;;;;;;;;7.00;99.90;;;;;;5028899;28;19913;-75
2023/12/30 02:59:32;;;;;;;;;;;7.00;99.90;;;;;;5020536;28;20506;-75
2023/12/30 03:02:18;;;;;;;;;;;7.00;99.90;;;;;;5032175;28;20007;-74
2023/12/30 03:05:05;;;;;;;;;;;6.90;99.90;;;;;;5015632;28;20222;-75
2023/12/30 03:07:51;;;;;;;;;;;7.00;99.90;;;;;;5004755;28;19921;-75
2023/12/30 03:10:38;;;;;;;;;;;6.90;99.90;;;;;;5031681;28;19924;-74
2023/12/30 03:13:24;;;;;;;;;;;7.00;99.90;;;;;;5031246;28;20379;-75
2023/12/30 03:16:16;;;;;;;;;;;7.00;99.90;;;;;;5010569;28;19921;-75
2023/12/30 03:19:02;;;;;;;;;;;7.00;99.90;;;;;;5027565;28;20055;-76
2023/12/30 03:21:48;;;;;;;;;;;7.00;99.90;;;;;;5031626;28;19917;-76
2023/12/30 03:24:34;;;;;;;;;;;7.00;99.90;;;;;;5018388;28;20404;-76
2023/12/30 03:27:20;;;;;;;;;;;7.00;99.90;;;;;;5029613;28;19921;-76
2023/12/30 03:30:06;;;;;;;;;;;7.00;99.90;;;;;;5032527;28;20314;-76
2023/12/30 03:32:52;;;;;;;;;;;7.10;99.90;;;;;;5031196;28;20003;-77
2023/12/30 03:35:38;;;;;;;;;;;7.10;99.90;;;;;;5032661;28;20958;-76
2023/12/30 03:38:23;;;;;;;;;;;7.00;99.90;;;;;;5032346;28;19956;-77
2023/12/30 03:41:09;;;;;;;;;;;7.10;99.90;;;;;;5028352;28;19943;-75
2023/12/30 03:43:55;;;;;;;;;;;7.10;99.90;;;;;;5020805;28;20379;-75
2023/12/30 03:46:41;;;;;;;;;;;7.10;99.90;;;;;;5017917;28;20019;-76
2023/12/30 03:49:27;;;;;;;;;;;7.10;99.90;;;;;;5033691;28;19917;-75
2023/12/30 03:52:13;;;;;;;;;;;7.00;99.90;;;;;;5015941;28;19978;-75
2023/12/30 03:54:59;;;;;;;;;;;7.10;99.90;;;;;;5021850;28;19996;-75
2023/12/30 03:57:45;;;;;;;;;;;7.10;99.90;;;;;;5015486;28;19917;-75
2023/12/30 04:00:30;;;;;;;;;;;7.00;99.90;;;;;;5030958;28;20003;-74
2023/12/30 04:03:16;;;;;;;;;;;7.00;99.90;;;;;;5009396;28;19925;-74
2023/12/30 04:06:02;;;;;;;;;;;7.00;99.90;;;;;;5029238;28;19917;-77
2023/12/30 04:08:48;;;;;;;;;;;7.00;99.90;;;;;;5011841;28;19992;-77
2023/12/30 04:11:34;;;;;;;;;;;6.90;99.90;;;;;;5020828;28;19956;-76
2023/12/30 04:14:20;;;;;;;;;;;7.00;99.90;;;;;;5030304;28;19913;-76
2023/12/30 04:17:07;;;;;;;;;;;6.90;99.90;;;;;;5028416;28;19921;-76
2023/12/30 04:19:53;;;;;;;;;;;6.90;99.90;;;;;;5025858;28;19918;-77
2023/12/30 04:22:39;;;;;;;;;;;6.90;99.90;;;;;;5013439;28;19963;-76
2023/12/30 04:25:25;;;;;;;;;;;6.90;99.90;;;;;;5021771;28;19917;-77
2023/12/30 04:28:11;;;;;;;;;;;6.90;99.90;;;;;;5010601;28;19953;-76
2023/12/30 04:30:57;;;;;;;;;;;6.80;99.90;;;;;;5030457;28;19987;-76
2023/12/30 04:33:42;;;;;;;;;;;6.80;99.90;;;;;;5015816;28;20003;-77
2023/12/30 04:36:28;;;;;;;;;;;6.80;99.90;;;;;;5030131;28;20003;-76
2023/12/30 04:39:14;;;;;;;;;;;6.80;99.90;;;;;;5025295;28;19952;-76
2023/12/30 04:42:00;;;;;;;;;;;6.80;99.90;;;;;;5021042;28;20361;-77
2023/12/30 04:44:46;;;;;;;;;;;6.80;99.90;;;;;;5017915;28;19955;-75
2023/12/30 04:47:32;;;;;;;;;;;6.80;99.90;;;;;;5015776;28;19917;-76
2023/12/30 04:50:18;;;;;;;;;;;6.70;99.90;;;;;;5020210;28;19913;-76
2023/12/30 04:53:03;;;;;;;;;;;6.70;99.90;;;;;;5013400;28;19996;-76
2023/12/30 04:55:49;;;;;;;;;;;6.70;99.90;;;;;;5018455;28;19924;-76
2023/12/30 04:58:35;;;;;;;;;;;6.70;99.90;;;;;;5006556;28;19941;-77
2023/12/30 05:01:21;;;;;;;;;;;6.80;99.90;;;;;;5019736;28;19927;-76
2023/12/30 05:04:07;;;;;;;;;;;6.70;99.90;;;;;;5025674;28;19929;-76
2023/12/30 05:06:53;;;;;;;;;;;6.70;99.90;;;;;;5017849;28;19924;-76
2023/12/30 05:09:39;;;;;;;;;;;6.70;99.90;;;;;;5035675;28;19996;-76
2023/12/30 05:12:25;;;;;;;;;;;6.70;99.90;;;;;;5007721;28;19913;-76
2023/12/30 05:15:13;;;;;;;;;;;6.60;99.90;;;;;;5037562;28;19917;-76
2023/12/30 05:17:59;;;;;;;;;;;6.60;99.90;;;;;;5038140;28;19924;-76
2023/12/30 05:20:44;;;;;;;;;;;6.60;99.90;;;;;;5037392;28;20288;-77
2023/12/30 05:23:33;;;;;;;;;;;6.60;99.90;;;;;;5036733;28;19925;-76
2023/12/30 05:26:20;;;;;;;;;;;6.60;99.90;;;;;;5031810;28;19924;-77
2023/12/30 05:29:06;;;;;;;;;;;6.60;99.90;;;;;;5024273;28;19939;-76
2023/12/30 05:31:52;;;;;;;;;;;6.60;99.90;;;;;;5004151;28;19952;-76
2023/12/30 05:34:37;;;;;;;;;;;6.70;99.90;;;;;;5012733;28;19952;-76
2023/12/30 05:37:23;;;;;;;;;;;6.70;99.90;;;;;;5022225;28;19917;-76
2023/12/30 05:40:10;;;;;;;;;;;6.60;99.90;;;;;;5036611;28;19928;-76
2023/12/30 05:42:55;;;;;;;;;;;6.60;99.90;;;;;;5036542;28;20389;-76
2023/12/30 05:45:43;;;;;;;;;;;6.60;99.90;;;;;;5036297;28;19925;-76
2023/12/30 05:48:29;;;;;;;;;;;6.60;99.90;;;;;;5016134;28;20353;-76
2023/12/30 05:51:16;;;;;;;;;;;6.60;99.90;;;;;;5017463;28;19919;-76
2023/12/30 05:54:02;;;;;;;;;;;6.50;99.90;;;;;;5019433;28;19920;-76
2023/12/30 05:56:48;;;;;;;;;;;6.60;99.90;;;;;;5016357;28;19928;-76
2023/12/30 05:59:34;;;;;;;;;;;6.50;99.90;;;;;;5030180;28;20395;-76
2023/12/30 06:02:20;;;;;;;;;;;6.60;99.90;;;;;;5022326;28;20540;-76
2023/12/30 06:05:06;;;;;;;;;;;6.60;99.90;;;;;;5006051;28;19921;-76
2023/12/30 06:07:52;;;;;;;;;;;6.60;99.90;;;;;;5012349;28;20244;-77
2023/12/30 06:10:38;;;;;;;;;;;6.60;99.90;;;;;;5035562;28;19949;-76
2023/12/30 06:13:24;;;;;;;;;;;6.50;99.90;;;;;;5036635;28;19917;-76
2023/12/30 06:16:10;;;;;;;;;;;6.50;99.90;;;;;;5032150;28;19927;-76
2023/12/30 06:18:56;;;;;;;;;;;6.50;99.90;;;;;;5015718;28;19914;-76
2023/12/30 06:21:42;;;;;;;;;;;6.50;99.90;;;;;;5018564;28;20352;-76
2023/12/30 06:24:28;;;;;;;;;;;6.60;99.90;;;;;;5015124;28;20238;-76
2023/12/30 06:27:14;;;;;;;;;;;6.50;99.90;;;;;;5012303;28;20667;-76
2023/12/30 06:30:00;;;;;;;;;;;6.50;99.90;;;;;;5035944;28;19913;-76
2023/12/30 06:32:46;;;;;;;;;;;6.60;99.90;;;;;;5034310;28;20337;-76
2023/12/30 06:35:35;;;;;;;;;;;6.50;99.90;;;;;;5020731;28;19921;-76
2023/12/30 06:38:21;;;;;;;;;;;6.60;99.90;;;;;;5015838;28;19921;-76
2023/12/30 06:41:07;;;;;;;;;;;6.60;99.90;;;;;;5011316;28;20003;-76
2023/12/30 06:43:52;;;;;;;;;;;6.60;99.90;;;;;;5036853;28;20355;-76
2023/12/30 06:46:40;;;;;;;;;;;6.60;99.90;;;;;;5019274;28;20063;-76
2023/12/30 06:49:25;;;;;;;;;;;6.60;99.90;;;;;;5035178;28;19924;-76
2023/12/30 06:52:11;;;;;;;;;;;6.60;99.90;;;;;;5028127;28;19928;-76
2023/12/30 06:54:57;;;;;;;;;;;6.60;99.90;;;;;;5021604;28;19917;-76
2023/12/30 06:57:43;;;;;;;;;;;6.70;99.90;;;;;;5034973;28;20002;-76
2023/12/30 07:00:30;;;;;;;;;;;6.60;99.90;;;;;;5018536;28;19913;-75
2023/12/30 07:03:16;;;;;;;;;;;6.60;99.90;;;;;;5029562;28;20024;-76
2023/12/30 07:06:02;;;;;;;;;;;6.60;99.90;;;;;;4999799;28;20051;-76
2023/12/30 07:08:48;;;;;;;;;;;6.60;99.90;;;;;;5031587;28;19913;-76
2023/12/30 07:11:34;;;;;;;;;;;6.60;99.90;;;;;;5033095;28;20525;-76
2023/12/30 07:14:20;;;;;;;;;;;6.60;99.90;;;;;;5000748;28;19949;-77
2023/12/30 07:17:06;;;;;;;;;;;6.60;99.90;;;;;;5031625;28;20357;-76
2023/12/30 07:19:52;;;;;;;;;;;6.60;99.90;;;;;;5020003;28;19971;-76
2023/12/30 07:22:38;;;;;;;;;;;6.60;99.90;;;;;;5033582;28;19999;-76
2023/12/30 07:25:23;;;;;;;;;;;6.60;99.90;;;;;;5033638;28;19967;-77
2023/12/30 07:28:09;;;;;;;;;;;6.60;99.90;;;;;;5032316;28;19917;-76
2023/12/30 07:30:55;;;;;;;;;;;6.60;99.90;;;;;;5021343;28;20649;-76
2023/12/30 07:33:41;;;;;;;;;;;6.60;99.90;;;;;;5022522;28;20300;-76
2023/12/30 07:36:27;;;;;;;;;;;6.60;99.90;;;;;;5019090;28;19917;-76
2023/12/30 07:39:13;;;;;;;;;;;6.70;99.90;;;;;;5028687;28;20000;-76
2023/12/30 07:41:59;;;;;;;;;;;6.60;99.90;;;;;;5014667;28;20242;-76
2023/12/30 07:44:45;;;;;;;;;;;6.60;99.90;;;;;;5018535;28;20316;-76
2023/12/30 07:47:31;;;;;;;;;;;6.60;99.90;;;;;;5033296;28;19917;-76
2023/12/30 07:50:17;;;;;;;;;;;6.60;99.90;;;;;;5032869;28;19917;-76
2023/12/30 07:53:03;;;;;;;;;;;6.60;99.90;;;;;;5004048;28;20063;-76
2023/12/30 07:55:49;;;;;;;;;;;6.60;99.90;;;;;;5022479;28;19914;-75
2023/12/30 07:58:35;;;;;;;;;;;6.60;99.90;;;;;;5015466;28;19917;-76
2023/12/30 08:01:21;;;;;;;;;;;6.60;99.90;;;;;;5013468;28;20534;-76
2023/12/30 08:04:07;;;;;;;;;;;6.60;99.90;;;;;;4948418;28;2418526;-77
2023/12/30 08:06:52;;;;;;;;;;;6.60;99.90;;;;;;5032462;28;19921;-77
2023/12/30 08:09:38;;;;;;;;;;;6.60;99.90;;;;;;5033261;28;19917;-77
2023/12/30 08:12:24;;;;;;;;;;;6.70;99.90;;;;;;5019413;28;19966;-77
2023/12/30 08:15:10;;;;;;;;;;;6.70;99.90;;;;;;5029140;28;19917;-76
2023/12/30 08:17:56;;;;;;;;;;;6.70;99.90;;;;;;5016645;28;19917;-77
2023/12/30 08:20:42;;;;;;;;;;;6.70;99.90;;;;;;5017871;28;19999;-76
2023/12/30 08:23:28;;;;;;;;;;;6.70;99.90;;;;;;5018256;28;19928;-76
2023/12/30 08:26:14;;;;;;;;;;;6.70;99.90;;;;;;5023588;28;19913;-76
2023/12/30 08:29:00;;;;;;;;;;;6.70;99.90;;;;;;5033267;28;20316;-76
2023/12/30 08:31:55;;;;;;;;;;;6.80;99.90;;;;;;5016043;28;20242;-76
2023/12/30 08:34:41;;;;;;;;;;;6.80;99.90;;;;;;5021745;28;19990;-76
2023/12/30 08:37:26;;;;;;;;;;;6.80;99.90;;;;;;5020208;28;19917;-76
2023/12/30 08:40:14;;;;;;;;;;;6.80;99.90;;;;;;5018706;28;19913;-77
2023/12/30 08:43:00;;;;;;;;;;;6.90;99.90;;;;;;5019866;28;20637;-76
2023/12/30 08:45:46;;;;;;;;;;;6.90;99.90;;;;;;5009091;28;19921;-76
2023/12/30 08:48:31;;;;;;;;;;;6.90;99.90;;;;;;5032936;28;20347;-77
2023/12/30 08:51:17;;;;;;;;;;;6.90;99.90;;;;;;5034305;28;19997;-76
2023/12/30 08:54:03;;;;;;;;;;;7.00;99.90;;;;;;5008121;28;19979;-77
2023/12/30 08:56:53;;;;;;;;;;;7.00;99.90;;;;;;5022477;28;19982;-76
2023/12/30 08:59:40;;;;;;;;;;;7.00;99.90;;;;;;5028807;28;19928;-76
2023/12/30 09:02:25;;;;;;;;;;;7.10;99.90;;;;;;5019928;28;19922;-76
2023/12/30 09:05:11;;;;;;;;;;;7.10;99.90;;;;;;5021049;28;19980;-77
2023/12/30 09:07:57;;;;;;;;;;;7.10;99.90;;;;;;5021126;28;19917;-76
2023/12/30 09:10:43;;;;;;;;;;;7.10;99.90;;;;;;5032753;28;20350;-77
2023/12/30 09:13:29;;;;;;;;;;;7.20;99.90;;;;;;5032405;28;19921;-78
2023/12/30 09:16:15;;;;;;;;;;;7.10;99.90;;;;;;5022146;28;20676;-76
2023/12/30 09:19:01;;;;;;;;;;;7.20;99.90;;;;;;5027975;28;19917;-76
2023/12/30 09:21:47;;;;;;;;;;;7.20;99.90;;;;;;5014527;28;20257;-77
2023/12/30 09:24:33;;;;;;;;;;;7.30;99.90;;;;;;5012485;28;19932;-77
2023/12/30 09:27:19;;;;;;;;;;;7.30;99.90;;;;;;5030482;28;20276;-77
2023/12/30 09:30:06;;;;;;;;;;;7.30;99.90;;;;;;5024093;28;20326;-76
2023/12/30 09:32:52;;;;;;;;;;;7.40;99.90;;;;;;5022971;28;20227;-76
2023/12/30 09:35:38;;;;;;;;;;;7.50;99.90;;;;;;5021303;28;19921;-77
2023/12/30 09:38:24;;;;;;;;;;;7.50;99.90;;;;;;5022341;28;19913;-76
2023/12/30 09:41:09;;;;;;;;;;;7.60;99.90;;;;;;5023062;28;20341;-76
2023/12/30 09:43:55;;;;;;;;;;;7.60;99.90;;;;;;5011873;28;19917;-77
2023/12/30 09:46:41;;;;;;;;;;;7.70;99.90;;;;;;5013416;28;19985;-76
2023/12/30 09:49:28;;;;;;;;;;;7.70;99.90;;;;;;5027036;28;20000;-76
2023/12/30 09:52:15;;;;;;;;;;;7.80;99.90;;;;;;5035390;28;20000;-77
2023/12/30 09:55:00;;;;;;;;;;;7.80;99.90;;;;;;5036160;28;19925;-77
2023/12/30 09:57:46;;;;;;;;;;;7.80;99.90;;;;;;5002727;28;19925;-76
2023/12/30 10:00:32;;;;;;;;;;;7.90;99.90;;;;;;5006350;28;19979;-77
2023/12/30 10:03:18;;;;;;;;;;;8.00;99.90;;;;;;5047632;28;20234;-77
2023/12/30 10:06:04;;;;;;;;;;;8.00;99.90;;;;;;5037571;28;20451;-76
2023/12/30 10:08:50;;;;;;;;;;;8.10;99.90;;;;;;5027002;28;20356;-76
2023/12/30 10:11:37;;;;;;;;;;;8.10;99.90;;;;;;5034811;28;19949;-76
2023/12/30 10:14:23;;;;;;;;;;;8.20;99.90;;;;;;5034120;28;20240;-76
2023/12/30 10:17:08;;;;;;;;;;;8.20;99.90;;;;;;5021674;28;19996;-76
2023/12/30 10:19:54;;;;;;;;;;;8.20;99.90;;;;;;5028163;28;19955;-76
2023/12/30 10:22:40;;;;;;;;;;;8.30;99.90;;;;;;5023225;28;19963;-76
2023/12/30 10:25:26;;;;;;;;;;;8.20;99.90;;;;;;5035091;28;19917;-76
2023/12/30 10:28:12;;;;;;;;;;;8.20;99.90;;;;;;5015895;28;19999;-76
2023/12/30 10:31:04;;;;;;;;;;;8.10;99.90;;;;;;5032548;28;19913;-76
2023/12/30 10:33:53;;;;;;;;;;;8.10;99.90;;;;;;5018761;28;19960;-76
2023/12/30 10:36:39;;;;;;;;;;;8.10;99.90;;;;;;5034382;28;20249;-76
2023/12/30 10:39:25;;;;;;;;;;;8.10;99.90;;;;;;5034848;28;19917;-77
2023/12/30 10:42:12;;;;;;;;;;;8.10;99.90;;;;;;5027883;28;20000;-79
2023/12/30 10:44:58;;;;;;;;;;;8.20;99.90;;;;;;5028610;28;19924;-76
2023/12/30 10:47:44;;;;;;;;;;;8.10;99.90;;;;;;5029858;28;19921;-76
2023/12/30 10:50:30;;;;;;;;;;;8.10;99.90;;;;;;5026650;28;19960;-77
2023/12/30 10:53:46;;;;;;;;;;;8.20;99.90;;;;;;5030134;28;19917;-76
2023/12/30 10:56:39;;;;;;;;;;;8.20;99.90;;;;;;5011753;28;19924;-76
2023/12/30 10:59:26;;;;;;;;;;;8.20;99.90;;;;;;5006507;28;19929;-77
2023/12/30 11:02:11;;;;;;;;;;;8.20;99.90;;;;;;5016140;28;19917;-76
2023/12/30 11:04:57;;;;;;;;;;;8.20;99.90;;;;;;5019330;28;19941;-76
2023/12/30 11:07:43;;;;;;;;;;;8.20;99.90;;;;;;5028251;28;19917;-76
2023/12/30 11:10:29;;;;;;;;;;;8.20;99.90;;;;;;5028557;28;19913;-76
2023/12/30 11:13:15;;;;;;;;;;;8.30;99.90;;;;;;5015150;28;20026;-76
2023/12/30 11:16:14;;;;;;;;;;;8.30;99.90;;;;;;5025168;28;20229;-77
2023/12/30 11:19:03;;;;;;;;;;;8.30;99.90;;;;;;5015526;28;19921;-78
2023/12/30 11:21:49;;;;;;;;;;;8.30;99.90;;;;;;5024453;28;19948;-77
2023/12/30 11:24:35;;;;;;;;;;;8.30;99.90;;;;;;5020878;28;19976;-76
2023/12/30 11:27:22;;;;;;;;;;;8.30;99.90;;;;;;5001239;28;19917;-76
2023/12/30 11:30:17;;;;;;;;;;;8.30;99.90;;;;;;5032938;28;19913;-76
2023/12/30 11:33:03;;;;;;;;;;;8.30;99.90;;;;;;5033435;28;19982;-76
2023/12/30 11:35:53;;;;;;;;;;;8.40;99.90;;;;;;5024779;28;19917;-77
2023/12/30 11:38:39;;;;;;;;;;;8.40;99.90;;;;;;5018904;28;19928;-77
2023/12/30 11:41:26;;;;;;;;;;;8.50;99.90;;;;;;5020767;28;20327;-77
2023/12/30 11:44:11;;;;;;;;;;;8.60;99.90;;;;;;5025341;28;19925;-76
2023/12/30 11:46:57;;;;;;;;;;;8.80;99.90;;;;;;5021936;28;20629;-78
2023/12/30 11:49:44;;;;;;;;;;;8.90;99.90;;;;;;5016862;28;19979;-78
2023/12/30 11:52:30;;;;;;;;;;;9.10;99.90;;;;;;5017879;28;20302;-78
2023/12/30 11:55:16;;;;;;;;;;;9.00;99.90;;;;;;5033804;28;19913;-78
2023/12/30 11:58:02;;;;;;;;;;;9.40;99.90;;;;;;5018800;28;19921;-78
2023/12/30 12:00:48;;;;;;;;;;;9.60;99.90;;;;;;5003998;28;19913;-78
2023/12/30 12:03:34;;;;;;;;;;;9.80;99.90;;;;;;5012117;28;19918;-78
2023/12/30 12:06:20;;;;;;;;;;;9.80;99.90;;;;;;5018631;28;20399;-77
2023/12/30 12:09:06;;;;;;;;;;;9.80;99.90;;;;;;5033775;28;19917;-77
2023/12/30 12:11:52;;;;;;;;;;;9.90;99.90;;;;;;5032445;28;19940;-77
2023/12/30 12:14:37;;;;;;;;;;;10.00;99.90;;;;;;5028258;28;19956;-79
2023/12/30 12:17:23;;;;;;;;;;;9.90;99.90;;;;;;5019369;28;19928;-78
2023/12/30 12:20:10;;;;;;;;;;;9.80;99.90;;;;;;5019595;28;19928;-78
2023/12/30 12:22:56;;;;;;;;;;;9.90;99.90;;;;;;5033279;28;19920;-78
2023/12/30 12:25:42;;;;;;;;;;;9.70;99.90;;;;;;5031821;28;19936;-77
2023/12/30 12:28:28;;;;;;;;;;;9.50;99.90;;;;;;5024031;28;19945;-79
2023/12/30 12:31:15;;;;;;;;;;;9.50;99.90;;;;;;5014443;28;19964;-77
2023/12/30 12:34:18;;;;;;;;;;;9.30;99.90;;;;;;5019125;28;19917;-79
2023/12/30 12:37:04;;;;;;;;;;;9.50;99.90;;;;;;5032592;28;19923;-78
2023/12/30 12:39:51;;;;;;;;;;;9.50;99.90;;;;;;5032751;28;19913;-78
2023/12/30 12:42:37;;;;;;;;;;;9.40;99.90;;;;;;5020372;28;19917;-76
2023/12/30 12:45:23;;;;;;;;;;;9.50;99.90;;;;;;5033065;28;19921;-78
2023/12/30 12:48:09;;;;;;;;;;;9.20;99.90;;;;;;5043874;28;19975;-77
2023/12/30 12:50:55;;;;;;;;;;;9.10;99.90;;;;;;5024795;28;20000;-77
2023/12/30 12:53:41;;;;;;;;;;;9.00;99.90;;;;;;5020967;28;19932;-79
2023/12/30 12:56:28;;;;;;;;;;;9.00;99.90;;;;;;5027286;28;19917;-79
2023/12/30 12:59:14;;;;;;;;;;;8.90;99.90;;;;;;5031240;28;19913;-77
2023/12/30 13:02:00;;;;;;;;;;;9.00;99.90;;;;;;5045844;28;19927;-79
2023/12/30 13:04:46;;;;;;;;;;;9.10;99.90;;;;;;5057514;28;19925;-78
2023/12/30 13:07:32;;;;;;;;;;;9.10;99.90;;;;;;5032711;28;19920;-77
2023/12/30 13:13:06;;;;;;;;;;;9.10;99.90;;;;;;5013349;28;19918;-79
2023/12/30 13:15:55;;;;;;;;;;;9.30;99.90;;;;;;5013860;28;19918;-79
2023/12/30 13:18:41;;;;;;;;;;;9.20;99.90;;;;;;5022885;28;19921;-79
2023/12/30 13:21:26;;;;;;;;;;;9.20;99.90;;;;;;5025149;28;19924;-80
2023/12/30 13:24:13;;;;;;;;;;;9.40;99.90;;;;;;5013876;28;19918;-79
2023/12/30 13:26:59;;;;;;;;;;;9.30;99.90;;;;;;5024533;28;19914;-79
2023/12/30 13:29:45;;;;;;;;;;;9.30;99.90;;;;;;5005777;28;19917;-79
2023/12/30 13:32:32;;;;;;;;;;;9.30;99.90;;;;;;5038163;28;19917;-79
2023/12/30 13:35:18;;;;;;;;;;;9.30;99.90;;;;;;5038361;28;20421;-79
2023/12/30 13:38:12;;;;;;;;;;;9.40;99.90;;;;;;5037164;28;19917;-79
2023/12/30 13:41:00;;;;;;;;;;;9.40;99.90;;;;;;5037816;28;19917;-76
2023/12/30 13:43:52;;;;;;;;;;;9.60;99.90;;;;;;5031445;28;19921;-77
2023/12/30 13:52:33;;;;;;;;;;;9.70;99.90;;;;;;5021009;28;19913;-77
2023/12/30 13:55:19;;;;;;;;;;;9.60;99.90;;;;;;5019646;28;19913;-77
2023/12/30 13:58:05;;;;;;;;;;;9.60;99.90;;;;;;5034773;28;20355;-77
2023/12/30 14:00:51;;;;;;;;;;;9.50;99.90;;;;;;5036385;28;19920;-78
2023/12/30 14:03:37;;;;;;;;;;;9.30;99.90;;;;;;5022504;28;19931;-78
2023/12/30 14:06:31;;;;;;;;;;;9.30;99.90;;;;;;5035278;28;19951;-79
2023/12/30 14:09:46;;;;;;;;;;;9.30;99.90;;;;;;5016565;28;19971;-79
2023/12/30 14:12:32;;;;;;;;;;;9.20;99.90;;;;;;5016239;28;19917;-78
2023/12/30 14:15:18;;;;;;;;;;;9.10;99.90;;;;;;5028344;28;19924;-78
2023/12/30 14:18:04;;;;;;;;;;;9.10;99.90;;;;;;5030066;28;19913;-78
2023/12/30 14:20:50;;;;;;;;;;;9.00;99.90;;;;;;5012275;28;20252;-78
2023/12/30 14:23:36;;;;;;;;;;;9.10;99.90;;;;;;5035804;28;20000;-77
2023/12/30 14:26:22;;;;;;;;;;;8.90;99.90;;;;;;5035342;28;19928;-77
2023/12/30 14:29:08;;;;;;;;;;;8.90;99.90;;;;;;5015511;28;19925;-77
2023/12/30 14:31:54;;;;;;;;;;;8.80;99.90;;;;;;5027844;28;19917;-77
2023/12/30 14:34:41;;;;;;;;;;;8.80;99.90;;;;;;5010466;28;19917;-77
2023/12/30 14:37:27;;;;;;;;;;;8.80;99.90;;;;;;5033060;28;19928;-77
2023/12/30 14:40:13;;;;;;;;;;;8.60;99.90;;;;;;5015820;28;19924;-77
2023/12/30 14:42:59;;;;;;;;;;;8.60;99.90;;;;;;5013192;28;19913;-77
2023/12/30 14:45:45;;;;;;;;;;;8.60;99.90;;;;;;5026656;28;20253;-77
2023/12/30 14:48:31;;;;;;;;;;;8.50;99.90;;;;;;5034287;28;19917;-77
2023/12/30 14:51:17;;;;;;;;;;;8.50;99.90;;;;;;5024240;28;19932;-77
2023/12/30 14:54:03;;;;;;;;;;;8.50;99.90;;;;;;5012774;28;19913;-77
2023/12/30 14:56:49;;;;;;;;;;;8.50;99.90;;;;;;5035646;28;19917;-77
2023/12/30 14:59:35;;;;;;;;;;;8.40;99.90;;;;;;5001639;28;19924;-78
2023/12/30 15:02:21;;;;;;;;;;;8.40;99.90;;;;;;5010435;28;19920;-78
2023/12/30 15:05:10;;;;;;;;;;;8.30;99.90;;;;;;5028784;28;19929;-77
2023/12/30 15:07:57;;;;;;;;;;;8.30;99.90;;;;;;5022817;28;19918;-78
2023/12/30 15:10:43;;;;;;;;;;;8.30;99.90;;;;;;5022859;28;19914;-77
2023/12/30 15:13:29;;;;;;;;;;;8.20;99.90;;;;;;5019037;28;19917;-78
2023/12/30 15:16:15;;;;;;;;;;;8.20;99.90;;;;;;5019881;28;20369;-78
2023/12/30 15:19:01;;;;;;;;;;;8.20;99.90;;;;;;5008416;28;19917;-77
2023/12/30 15:21:50;;;;;;;;;;;8.20;99.90;;;;;;5007595;28;19917;-80
2023/12/30 15:24:36;;;;;;;;;;;8.10;99.90;;;;;;5019586;28;19921;-77
2023/12/30 15:27:22;;;;;;;;;;;8.20;99.90;;;;;;5010735;28;20031;-77
2023/12/30 15:30:09;;;;;;;;;;;8.20;99.90;;;;;;5010232;28;19914;-77
2023/12/30 15:32:55;;;;;;;;;;;8.20;99.90;;;;;;5019289;28;19984;-78
2023/12/30 15:35:41;;;;;;;;;;;8.20;99.90;;;;;;5003344;28;19996;-78
2023/12/30 15:38:27;;;;;;;;;;;8.20;99.90;;;;;;5020960;28;20312;-78
2023/12/30 15:41:13;;;;;;;;;;;8.30;99.90;;;;;;5025995;28;19917;-77
2023/12/30 15:43:59;;;;;;;;;;;8.30;99.90;;;;;;5019574;28;19921;-77
2023/12/30 15:46:45;;;;;;;;;;;8.30;99.90;;;;;;5017887;28;19917;-77
2023/12/30 15:49:31;;;;;;;;;;;8.30;99.90;;;;;;5017781;28;19917;-77
2023/12/30 15:52:17;;;;;;;;;;;8.20;99.90;;;;;;5017496;28;19921;-76
2023/12/30 15:55:04;;;;;;;;;;;8.20;99.90;;;;;;5025202;28;19921;-77
2023/12/30 15:57:50;;;;;;;;;;;8.20;99.90;;;;;;5018759;28;19927;-77
2023/12/30 16:00:41;;;;;;;;;;;8.20;99.90;;;;;;5008816;28;20340;-77
2023/12/30 16:03:27;;;;;;;;;;;8.20;99.90;;;;;;5017421;28;19921;-77
2023/12/30 16:06:13;;;;;;;;;;;8.20;99.90;;;;;;5028422;28;19948;-77
2023/12/30 16:08:59;;;;;;;;;;;8.30;99.90;;;;;;5005911;28;19929;-76
2023/12/30 16:11:45;;;;;;;;;;;8.20;99.90;;;;;;5020026;28;19928;-77
2023/12/30 16:14:31;;;;;;;;;;;8.20;99.90;;;;;;5016817;28;19984;-77
2023/12/30 16:17:17;;;;;;;;;;;8.20;99.90;;;;;;5014435;28;19944;-77
2023/12/30 16:20:04;;;;;;;;;;;8.20;99.90;;;;;;5017387;28;19914;-78
2023/12/30 16:22:50;;;;;;;;;;;8.20;99.90;;;;;;5018467;28;20016;-77
2023/12/30 16:25:36;;;;;;;;;;;8.20;99.90;;;;;;5018286;28;19921;-77
2023/12/30 16:28:22;;;;;;;;;;;8.20;99.90;;;;;;5018220;28;20275;-77
2023/12/30 16:31:07;;;;;;;;;;;8.30;99.90;;;;;;5023053;28;20059;-78
2023/12/30 16:33:53;;;;;;;;;;;8.30;99.90;;;;;;5005195;28;19921;-77
2023/12/30 16:36:39;;;;;;;;;;;8.30;99.90;;;;;;5004146;28;19917;-77